sensor_id;sensor_type;location;lat;lon;timestamp;P1;durP1;ratioP1;P2;durP2;ratioP2
6344;SDS011;3205;42.666;23.264;2023-12-22T00:01:44;68.37;;;34.07;;
6344;SDS011;3205;42.666;23.264;2023-12-22T00:04:10;71.93;;;34.43;;
6344;SDS011;3205;42.666;23.264;2023-12-22T00:06:36;83.20;;;37.50;;
6344;SDS011;3205;42.666;23.264;2023-12-22T00:09:02;84.33;;;37.07;;
6344;SDS011;3205;42.666;23.264;2023-12-22T00:11:29;84.37;;;35.83;;
6344;SDS011;3205;42.666;23.264;2023-12-22T00:13:56;84.33;;;39.13;;
6344;SDS011;3205;42.666;23.264;2023-12-22T00:16:22;72.97;;;36.20;;
6344;SDS011;3205;42.666;23.264;2023-12-22T00:18:48;83.23;;;35.63;;
6344;SDS011;3205;42.666;23.264;2023-12-22T00:21:14;73.70;;;33.50;;
6344;SDS011;3205;42.666;23.264;2023-12-22T00:23:41;75.03;;;33.03;;
6344;SDS011;3205;42.666;23.264;2023-12-22T00:26:07;69.40;;;31.77;;
6344;SDS011;3205;42.666;23.264;2023-12-22T00:28:33;57.97;;;26.90;;
6344;SDS011;3205;42.666;23.264;2023-12-22T00:31:00;56.27;;;26.10;;
6344;SDS011;3205;42.666;23.264;2023-12-22T00:33:26;57.90;;;25.73;;
6344;SDS011;3205;42.666;23.264;2023-12-22T00:35:52;51.97;;;25.33;;
6344;SDS011;3205;42.666;23.264;2023-12-22T00:38:19;55.33;;;24.23;;
6344;SDS011;3205;42.666;23.264;2023-12-22T00:40:45;55.23;;;25.47;;
6344;SDS011;3205;42.666;23.264;2023-12-22T00:43:12;50.70;;;24.13;;
6344;SDS011;3205;42.666;23.264;2023-12-22T00:45:38;49.37;;;22.60;;
6344;SDS011;3205;42.666;23.264;2023-12-22T00:48:05;53.80;;;23.27;;
6344;SDS011;3205;42.666;23.264;2023-12-22T00:50:31;48.90;;;24.10;;
6344;SDS011;3205;42.666;23.264;2023-12-22T00:52:57;54.27;;;23.77;;
6344;SDS011;3205;42.666;23.264;2023-12-22T00:55:23;51.43;;;24.87;;
6344;SDS011;3205;42.666;23.264;2023-12-22T00:57:50;56.03;;;26.67;;
6344;SDS011;3205;42.666;23.264;2023-12-22T01:00:16;58.60;;;26.73;;
6344;SDS011;3205;42.666;23.264;2023-12-22T01:02:43;57.17;;;27.57;;
6344;SDS011;3205;42.666;23.264;2023-12-22T01:05:10;54.07;;;26.13;;
6344;SDS011;3205;42.666;23.264;2023-12-22T01:07:37;62.03;;;27.07;;
6344;SDS011;3205;42.666;23.264;2023-12-22T01:10:03;51.77;;;25.77;;
6344;SDS011;3205;42.666;23.264;2023-12-22T01:12:30;54.53;;;26.00;;
6344;SDS011;3205;42.666;23.264;2023-12-22T01:14:57;55.50;;;26.10;;
6344;SDS011;3205;42.666;23.264;2023-12-22T01:17:23;55.20;;;25.57;;
6344;SDS011;3205;42.666;23.264;2023-12-22T01:19:50;57.00;;;25.83;;
6344;SDS011;3205;42.666;23.264;2023-12-22T01:22:17;59.67;;;27.00;;
6344;SDS011;3205;42.666;23.264;2023-12-22T01:24:43;49.33;;;23.83;;
6344;SDS011;3205;42.666;23.264;2023-12-22T01:27:10;47.83;;;23.57;;
6344;SDS011;3205;42.666;23.264;2023-12-22T01:29:37;47.50;;;23.80;;
6344;SDS011;3205;42.666;23.264;2023-12-22T01:32:03;49.63;;;24.33;;
6344;SDS011;3205;42.666;23.264;2023-12-22T01:34:30;52.70;;;23.10;;
6344;SDS011;3205;42.666;23.264;2023-12-22T01:36:57;48.00;;;23.60;;
6344;SDS011;3205;42.666;23.264;2023-12-22T01:39:24;48.97;;;23.50;;
6344;SDS011;3205;42.666;23.264;2023-12-22T01:41:50;48.37;;;22.67;;
6344;SDS011;3205;42.666;23.264;2023-12-22T01:44:16;54.97;;;24.57;;
6344;SDS011;3205;42.666;23.264;2023-12-22T01:46:42;35.40;;;19.70;;
6344;SDS011;3205;42.666;23.264;2023-12-22T01:49:09;47.10;;;22.20;;
6344;SDS011;3205;42.666;23.264;2023-12-22T01:51:37;47.50;;;22.93;;
6344;SDS011;3205;42.666;23.264;2023-12-22T01:54:05;40.67;;;22.17;;
6344;SDS011;3205;42.666;23.264;2023-12-22T01:56:33;43.93;;;21.80;;
6344;SDS011;3205;42.666;23.264;2023-12-22T01:59:00;37.27;;;19.77;;
6344;SDS011;3205;42.666;23.264;2023-12-22T02:01:27;42.87;;;20.07;;
6344;SDS011;3205;42.666;23.264;2023-12-22T02:03:56;70.43;;;31.70;;
6344;SDS011;3205;42.666;23.264;2023-12-22T02:06:24;60.17;;;27.07;;
6344;SDS011;3205;42.666;23.264;2023-12-22T02:08:51;63.43;;;28.33;;
6344;SDS011;3205;42.666;23.264;2023-12-22T02:11:17;59.47;;;26.40;;
6344;SDS011;3205;42.666;23.264;2023-12-22T02:13:45;128.97;;;45.53;;
6344;SDS011;3205;42.666;23.264;2023-12-22T02:16:15;58.90;;;25.80;;
6344;SDS011;3205;42.666;23.264;2023-12-22T02:18:46;45.00;;;21.10;;
6344;SDS011;3205;42.666;23.264;2023-12-22T02:21:15;43.27;;;21.70;;
6344;SDS011;3205;42.666;23.264;2023-12-22T02:23:42;48.17;;;23.13;;
6344;SDS011;3205;42.666;23.264;2023-12-22T02:26:10;56.70;;;25.07;;
6344;SDS011;3205;42.666;23.264;2023-12-22T02:28:41;35.90;;;17.93;;
6344;SDS011;3205;42.666;23.264;2023-12-22T02:31:13;36.60;;;17.90;;
6344;SDS011;3205;42.666;23.264;2023-12-22T02:33:43;37.47;;;19.63;;
6344;SDS011;3205;42.666;23.264;2023-12-22T02:36:13;34.30;;;17.30;;
6344;SDS011;3205;42.666;23.264;2023-12-22T02:38:40;34.83;;;17.93;;
6344;SDS011;3205;42.666;23.264;2023-12-22T02:41:10;36.83;;;17.30;;
6344;SDS011;3205;42.666;23.264;2023-12-22T02:43:38;35.10;;;17.77;;
6344;SDS011;3205;42.666;23.264;2023-12-22T02:46:04;36.17;;;18.67;;
6344;SDS011;3205;42.666;23.264;2023-12-22T02:48:39;36.07;;;17.20;;
6344;SDS011;3205;42.666;23.264;2023-12-22T02:51:05;44.17;;;19.97;;
6344;SDS011;3205;42.666;23.264;2023-12-22T02:53:32;43.27;;;19.43;;
6344;SDS011;3205;42.666;23.264;2023-12-22T02:55:58;48.43;;;20.60;;
6344;SDS011;3205;42.666;23.264;2023-12-22T02:58:25;34.53;;;17.63;;
6344;SDS011;3205;42.666;23.264;2023-12-22T03:00:51;35.00;;;16.67;;
6344;SDS011;3205;42.666;23.264;2023-12-22T03:03:17;33.50;;;16.57;;
6344;SDS011;3205;42.666;23.264;2023-12-22T03:05:43;37.27;;;18.40;;
6344;SDS011;3205;42.666;23.264;2023-12-22T03:08:10;44.17;;;20.20;;
6344;SDS011;3205;42.666;23.264;2023-12-22T03:10:36;32.67;;;16.50;;
6344;SDS011;3205;42.666;23.264;2023-12-22T03:13:04;32.90;;;15.83;;
6344;SDS011;3205;42.666;23.264;2023-12-22T03:15:30;33.80;;;16.73;;
6344;SDS011;3205;42.666;23.264;2023-12-22T03:17:57;47.43;;;20.73;;
6344;SDS011;3205;42.666;23.264;2023-12-22T03:20:23;29.57;;;15.50;;
6344;SDS011;3205;42.666;23.264;2023-12-22T03:22:50;69.60;;;27.77;;
6344;SDS011;3205;42.666;23.264;2023-12-22T03:25:16;56.47;;;23.10;;
6344;SDS011;3205;42.666;23.264;2023-12-22T03:27:43;89.60;;;35.97;;
6344;SDS011;3205;42.666;23.264;2023-12-22T03:30:10;39.77;;;19.40;;
6344;SDS011;3205;42.666;23.264;2023-12-22T03:32:36;47.63;;;21.43;;
6344;SDS011;3205;42.666;23.264;2023-12-22T03:35:03;108.17;;;42.70;;
6344;SDS011;3205;42.666;23.264;2023-12-22T03:37:30;44.23;;;20.60;;
6344;SDS011;3205;42.666;23.264;2023-12-22T03:39:56;35.47;;;17.27;;
6344;SDS011;3205;42.666;23.264;2023-12-22T03:42:22;33.50;;;17.40;;
6344;SDS011;3205;42.666;23.264;2023-12-22T03:44:48;36.20;;;17.17;;
6344;SDS011;3205;42.666;23.264;2023-12-22T03:47:15;34.40;;;18.47;;
6344;SDS011;3205;42.666;23.264;2023-12-22T03:49:42;37.87;;;17.53;;
6344;SDS011;3205;42.666;23.264;2023-12-22T03:52:08;35.60;;;16.77;;
6344;SDS011;3205;42.666;23.264;2023-12-22T03:54:35;38.87;;;17.67;;
6344;SDS011;3205;42.666;23.264;2023-12-22T03:57:02;41.60;;;19.77;;
6344;SDS011;3205;42.666;23.264;2023-12-22T03:59:28;34.17;;;17.67;;
6344;SDS011;3205;42.666;23.264;2023-12-22T04:01:55;39.23;;;20.47;;
6344;SDS011;3205;42.666;23.264;2023-12-22T04:04:23;39.87;;;23.37;;
6344;SDS011;3205;42.666;23.264;2023-12-22T04:06:52;40.40;;;20.30;;
6344;SDS011;3205;42.666;23.264;2023-12-22T04:09:18;35.57;;;18.37;;
6344;SDS011;3205;42.666;23.264;2023-12-22T04:11:44;38.13;;;19.60;;
6344;SDS011;3205;42.666;23.264;2023-12-22T04:14:11;35.53;;;18.73;;
6344;SDS011;3205;42.666;23.264;2023-12-22T04:16:37;38.57;;;19.83;;
6344;SDS011;3205;42.666;23.264;2023-12-22T04:19:03;35.23;;;18.40;;
6344;SDS011;3205;42.666;23.264;2023-12-22T04:21:30;39.73;;;19.70;;
6344;SDS011;3205;42.666;23.264;2023-12-22T04:23:56;32.77;;;17.33;;
6344;SDS011;3205;42.666;23.264;2023-12-22T04:26:23;35.70;;;17.63;;
6344;SDS011;3205;42.666;23.264;2023-12-22T04:28:49;36.37;;;18.33;;
6344;SDS011;3205;42.666;23.264;2023-12-22T04:31:15;32.53;;;18.50;;
6344;SDS011;3205;42.666;23.264;2023-12-22T04:33:41;32.40;;;18.17;;
6344;SDS011;3205;42.666;23.264;2023-12-22T04:36:08;34.67;;;18.00;;
6344;SDS011;3205;42.666;23.264;2023-12-22T04:38:35;34.80;;;18.47;;
6344;SDS011;3205;42.666;23.264;2023-12-22T04:41:01;38.30;;;19.60;;
6344;SDS011;3205;42.666;23.264;2023-12-22T04:43:27;47.47;;;18.90;;
6344;SDS011;3205;42.666;23.264;2023-12-22T04:45:54;43.67;;;19.70;;
6344;SDS011;3205;42.666;23.264;2023-12-22T04:48:20;37.37;;;18.47;;
6344;SDS011;3205;42.666;23.264;2023-12-22T04:50:46;37.87;;;18.40;;
6344;SDS011;3205;42.666;23.264;2023-12-22T04:53:12;37.83;;;18.90;;
6344;SDS011;3205;42.666;23.264;2023-12-22T04:55:39;44.17;;;20.17;;
6344;SDS011;3205;42.666;23.264;2023-12-22T04:58:06;39.80;;;21.87;;
6344;SDS011;3205;42.666;23.264;2023-12-22T05:00:32;41.13;;;21.30;;
6344;SDS011;3205;42.666;23.264;2023-12-22T05:02:58;38.70;;;19.60;;
6344;SDS011;3205;42.666;23.264;2023-12-22T05:05:24;35.33;;;18.20;;
6344;SDS011;3205;42.666;23.264;2023-12-22T05:07:51;36.70;;;18.67;;
6344;SDS011;3205;42.666;23.264;2023-12-22T05:10:17;36.00;;;18.00;;
6344;SDS011;3205;42.666;23.264;2023-12-22T05:12:44;36.47;;;18.33;;
6344;SDS011;3205;42.666;23.264;2023-12-22T05:15:10;31.17;;;17.07;;
6344;SDS011;3205;42.666;23.264;2023-12-22T05:17:36;33.03;;;16.13;;
6344;SDS011;3205;42.666;23.264;2023-12-22T05:20:03;37.57;;;18.53;;
6344;SDS011;3205;42.666;23.264;2023-12-22T05:22:30;35.37;;;18.20;;
6344;SDS011;3205;42.666;23.264;2023-12-22T05:24:57;39.77;;;18.47;;
6344;SDS011;3205;42.666;23.264;2023-12-22T05:27:24;35.67;;;17.57;;
6344;SDS011;3205;42.666;23.264;2023-12-22T05:29:52;30.90;;;16.40;;
6344;SDS011;3205;42.666;23.264;2023-12-22T05:32:18;24.30;;;13.93;;
6344;SDS011;3205;42.666;23.264;2023-12-22T05:34:44;22.13;;;12.87;;
6344;SDS011;3205;42.666;23.264;2023-12-22T05:37:10;31.17;;;13.67;;
6344;SDS011;3205;42.666;23.264;2023-12-22T05:39:37;26.47;;;14.50;;
6344;SDS011;3205;42.666;23.264;2023-12-22T05:42:03;23.63;;;13.17;;
6344;SDS011;3205;42.666;23.264;2023-12-22T05:44:30;25.87;;;12.97;;
6344;SDS011;3205;42.666;23.264;2023-12-22T05:46:57;21.43;;;11.80;;
6344;SDS011;3205;42.666;23.264;2023-12-22T05:49:23;19.27;;;12.20;;
6344;SDS011;3205;42.666;23.264;2023-12-22T05:51:50;27.83;;;13.83;;
6344;SDS011;3205;42.666;23.264;2023-12-22T05:54:17;26.70;;;14.20;;
6344;SDS011;3205;42.666;23.264;2023-12-22T05:56:44;30.43;;;14.50;;
6344;SDS011;3205;42.666;23.264;2023-12-22T05:59:10;25.63;;;14.57;;
6344;SDS011;3205;42.666;23.264;2023-12-22T06:01:37;27.73;;;14.53;;
6344;SDS011;3205;42.666;23.264;2023-12-22T06:04:04;25.40;;;15.47;;
6344;SDS011;3205;42.666;23.264;2023-12-22T06:06:31;29.37;;;15.13;;
6344;SDS011;3205;42.666;23.264;2023-12-22T06:08:57;24.43;;;14.57;;
6344;SDS011;3205;42.666;23.264;2023-12-22T06:11:23;37.50;;;17.80;;
6344;SDS011;3205;42.666;23.264;2023-12-22T06:13:50;30.00;;;15.07;;
6344;SDS011;3205;42.666;23.264;2023-12-22T06:16:16;36.17;;;14.80;;
6344;SDS011;3205;42.666;23.264;2023-12-22T06:18:43;29.70;;;14.93;;
6344;SDS011;3205;42.666;23.264;2023-12-22T06:21:11;32.43;;;16.10;;
6344;SDS011;3205;42.666;23.264;2023-12-22T06:23:37;30.40;;;14.37;;
6344;SDS011;3205;42.666;23.264;2023-12-22T06:26:07;24.63;;;14.33;;
6344;SDS011;3205;42.666;23.264;2023-12-22T06:28:34;33.27;;;15.27;;
6344;SDS011;3205;42.666;23.264;2023-12-22T06:31:01;32.83;;;14.73;;
6344;SDS011;3205;42.666;23.264;2023-12-22T06:33:28;28.63;;;15.00;;
6344;SDS011;3205;42.666;23.264;2023-12-22T06:35:54;31.37;;;14.80;;
6344;SDS011;3205;42.666;23.264;2023-12-22T06:38:21;25.43;;;15.17;;
6344;SDS011;3205;42.666;23.264;2023-12-22T06:40:47;27.23;;;14.73;;
6344;SDS011;3205;42.666;23.264;2023-12-22T06:43:14;30.93;;;14.33;;
6344;SDS011;3205;42.666;23.264;2023-12-22T06:45:40;27.20;;;13.83;;
6344;SDS011;3205;42.666;23.264;2023-12-22T06:48:06;29.77;;;15.30;;
6344;SDS011;3205;42.666;23.264;2023-12-22T06:50:34;25.67;;;13.70;;
6344;SDS011;3205;42.666;23.264;2023-12-22T06:53:02;27.23;;;14.60;;
6344;SDS011;3205;42.666;23.264;2023-12-22T06:55:29;23.17;;;13.70;;
6344;SDS011;3205;42.666;23.264;2023-12-22T06:57:56;23.90;;;13.37;;
6344;SDS011;3205;42.666;23.264;2023-12-22T07:00:22;26.73;;;14.27;;
6344;SDS011;3205;42.666;23.264;2023-12-22T07:02:48;25.60;;;13.77;;
6344;SDS011;3205;42.666;23.264;2023-12-22T07:05:33;29.27;;;15.97;;
6344;SDS011;3205;42.666;23.264;2023-12-22T07:08:02;24.73;;;12.30;;
6344;SDS011;3205;42.666;23.264;2023-12-22T07:10:31;27.40;;;13.87;;
6344;SDS011;3205;42.666;23.264;2023-12-22T07:12:57;26.53;;;13.23;;
6344;SDS011;3205;42.666;23.264;2023-12-22T07:15:23;24.20;;;13.20;;
6344;SDS011;3205;42.666;23.264;2023-12-22T07:17:49;21.03;;;12.87;;
6344;SDS011;3205;42.666;23.264;2023-12-22T07:20:16;23.87;;;12.30;;
6344;SDS011;3205;42.666;23.264;2023-12-22T07:22:44;29.93;;;15.33;;
6344;SDS011;3205;42.666;23.264;2023-12-22T07:25:10;27.07;;;14.13;;
6344;SDS011;3205;42.666;23.264;2023-12-22T07:27:38;28.60;;;15.47;;
6344;SDS011;3205;42.666;23.264;2023-12-22T07:30:04;28.70;;;14.97;;
6344;SDS011;3205;42.666;23.264;2023-12-22T07:32:31;30.93;;;16.83;;
6344;SDS011;3205;42.666;23.264;2023-12-22T07:34:58;32.67;;;15.40;;
6344;SDS011;3205;42.666;23.264;2023-12-22T07:37:24;26.07;;;14.87;;
6344;SDS011;3205;42.666;23.264;2023-12-22T07:39:50;31.73;;;17.00;;
6344;SDS011;3205;42.666;23.264;2023-12-22T07:42:16;30.63;;;15.77;;
6344;SDS011;3205;42.666;23.264;2023-12-22T07:44:43;31.33;;;15.50;;
6344;SDS011;3205;42.666;23.264;2023-12-22T07:47:09;33.60;;;16.80;;
6344;SDS011;3205;42.666;23.264;2023-12-22T07:49:36;30.87;;;16.80;;
6344;SDS011;3205;42.666;23.264;2023-12-22T07:52:02;31.07;;;17.27;;
6344;SDS011;3205;42.666;23.264;2023-12-22T07:54:28;27.30;;;16.07;;
6344;SDS011;3205;42.666;23.264;2023-12-22T07:56:55;25.37;;;15.17;;
6344;SDS011;3205;42.666;23.264;2023-12-22T07:59:21;34.77;;;16.03;;
6344;SDS011;3205;42.666;23.264;2023-12-22T08:01:48;28.03;;;16.23;;
6344;SDS011;3205;42.666;23.264;2023-12-22T08:04:14;35.17;;;17.00;;
6344;SDS011;3205;42.666;23.264;2023-12-22T08:06:40;38.67;;;19.27;;
6344;SDS011;3205;42.666;23.264;2023-12-22T08:09:07;35.10;;;17.47;;
6344;SDS011;3205;42.666;23.264;2023-12-22T08:11:34;32.80;;;17.10;;
6344;SDS011;3205;42.666;23.264;2023-12-22T08:14:01;37.47;;;18.47;;
6344;SDS011;3205;42.666;23.264;2023-12-22T08:16:29;33.40;;;15.63;;
6344;SDS011;3205;42.666;23.264;2023-12-22T08:18:56;26.07;;;15.30;;
6344;SDS011;3205;42.666;23.264;2023-12-22T08:21:22;28.10;;;15.87;;
6344;SDS011;3205;42.666;23.264;2023-12-22T08:23:48;32.93;;;15.70;;
6344;SDS011;3205;42.666;23.264;2023-12-22T08:26:15;34.73;;;16.57;;
6344;SDS011;3205;42.666;23.264;2023-12-22T08:28:43;32.23;;;16.27;;
6344;SDS011;3205;42.666;23.264;2023-12-22T08:31:09;29.07;;;17.43;;
6344;SDS011;3205;42.666;23.264;2023-12-22T08:33:36;32.20;;;16.23;;
6344;SDS011;3205;42.666;23.264;2023-12-22T08:36:05;30.87;;;16.77;;
6344;SDS011;3205;42.666;23.264;2023-12-22T08:38:32;28.33;;;16.50;;
6344;SDS011;3205;42.666;23.264;2023-12-22T08:40:58;24.50;;;15.87;;
6344;SDS011;3205;42.666;23.264;2023-12-22T08:43:24;25.27;;;15.37;;
6344;SDS011;3205;42.666;23.264;2023-12-22T08:45:51;29.93;;;14.67;;
6344;SDS011;3205;42.666;23.264;2023-12-22T08:48:17;28.07;;;15.77;;
6344;SDS011;3205;42.666;23.264;2023-12-22T08:50:43;32.83;;;18.57;;
6344;SDS011;3205;42.666;23.264;2023-12-22T08:53:11;28.80;;;16.27;;
6344;SDS011;3205;42.666;23.264;2023-12-22T08:55:37;33.30;;;18.70;;
6344;SDS011;3205;42.666;23.264;2023-12-22T08:58:04;33.50;;;17.80;;
6344;SDS011;3205;42.666;23.264;2023-12-22T09:00:30;32.87;;;16.40;;
6344;SDS011;3205;42.666;23.264;2023-12-22T09:02:56;31.10;;;18.60;;
6344;SDS011;3205;42.666;23.264;2023-12-22T09:05:22;40.77;;;19.27;;
6344;SDS011;3205;42.666;23.264;2023-12-22T09:07:48;35.87;;;18.17;;
6344;SDS011;3205;42.666;23.264;2023-12-22T09:10:15;35.60;;;18.63;;
6344;SDS011;3205;42.666;23.264;2023-12-22T09:12:42;37.03;;;18.50;;
6344;SDS011;3205;42.666;23.264;2023-12-22T09:15:08;32.07;;;17.60;;
6344;SDS011;3205;42.666;23.264;2023-12-22T09:17:37;35.70;;;18.63;;
6344;SDS011;3205;42.666;23.264;2023-12-22T09:20:04;37.23;;;19.70;;
6344;SDS011;3205;42.666;23.264;2023-12-22T09:22:31;33.43;;;19.37;;
6344;SDS011;3205;42.666;23.264;2023-12-22T09:24:57;44.40;;;22.07;;
6344;SDS011;3205;42.666;23.264;2023-12-22T09:27:24;36.30;;;19.17;;
6344;SDS011;3205;42.666;23.264;2023-12-22T09:29:55;52.37;;;24.17;;
6344;SDS011;3205;42.666;23.264;2023-12-22T09:32:24;44.50;;;22.77;;
6344;SDS011;3205;42.666;23.264;2023-12-22T09:34:50;43.33;;;22.63;;
6344;SDS011;3205;42.666;23.264;2023-12-22T09:37:16;34.67;;;18.70;;
6344;SDS011;3205;42.666;23.264;2023-12-22T09:39:43;36.30;;;19.33;;
6344;SDS011;3205;42.666;23.264;2023-12-22T09:42:09;34.27;;;18.80;;
6344;SDS011;3205;42.666;23.264;2023-12-22T09:44:36;30.40;;;17.63;;
6344;SDS011;3205;42.666;23.264;2023-12-22T09:47:06;31.67;;;16.63;;
6344;SDS011;3205;42.666;23.264;2023-12-22T09:49:35;34.97;;;16.17;;
6344;SDS011;3205;42.666;23.264;2023-12-22T09:52:03;25.27;;;12.80;;
6344;SDS011;3205;42.666;23.264;2023-12-22T09:54:32;10.83;;;7.33;;
6344;SDS011;3205;42.666;23.264;2023-12-22T09:56:59;5.90;;;4.23;;
6344;SDS011;3205;42.666;23.264;2023-12-22T09:59:25;5.23;;;3.03;;
6344;SDS011;3205;42.666;23.264;2023-12-22T10:01:55;5.67;;;3.00;;
6344;SDS011;3205;42.666;23.264;2023-12-22T10:04:23;4.83;;;3.40;;
6344;SDS011;3205;42.666;23.264;2023-12-22T10:06:49;5.80;;;4.33;;
6344;SDS011;3205;42.666;23.264;2023-12-22T10:09:17;8.27;;;4.97;;
6344;SDS011;3205;42.666;23.264;2023-12-22T10:11:44;9.67;;;5.43;;
6344;SDS011;3205;42.666;23.264;2023-12-22T10:14:14;10.23;;;5.70;;
6344;SDS011;3205;42.666;23.264;2023-12-22T10:16:47;9.30;;;5.80;;
6344;SDS011;3205;42.666;23.264;2023-12-22T10:19:15;8.67;;;4.57;;
6344;SDS011;3205;42.666;23.264;2023-12-22T10:21:41;10.97;;;4.60;;
6344;SDS011;3205;42.666;23.264;2023-12-22T10:24:08;16.63;;;7.57;;
6344;SDS011;3205;42.666;23.264;2023-12-22T10:27:03;9.87;;;5.70;;
6344;SDS011;3205;42.666;23.264;2023-12-22T10:29:30;13.27;;;6.50;;
6344;SDS011;3205;42.666;23.264;2023-12-22T10:31:56;14.83;;;7.27;;
6344;SDS011;3205;42.666;23.264;2023-12-22T10:34:23;7.20;;;3.73;;
6344;SDS011;3205;42.666;23.264;2023-12-22T10:36:50;4.73;;;3.37;;
6344;SDS011;3205;42.666;23.264;2023-12-22T10:39:16;4.03;;;2.37;;
6344;SDS011;3205;42.666;23.264;2023-12-22T10:41:42;5.07;;;3.70;;
6344;SDS011;3205;42.666;23.264;2023-12-22T10:44:09;6.83;;;3.23;;
6344;SDS011;3205;42.666;23.264;2023-12-22T10:46:36;5.17;;;3.70;;
6344;SDS011;3205;42.666;23.264;2023-12-22T10:49:02;6.10;;;3.97;;
6344;SDS011;3205;42.666;23.264;2023-12-22T10:51:30;3.43;;;3.13;;
6344;SDS011;3205;42.666;23.264;2023-12-22T10:53:58;2.53;;;2.00;;
6344;SDS011;3205;42.666;23.264;2023-12-22T10:56:24;2.43;;;2.03;;
6344;SDS011;3205;42.666;23.264;2023-12-22T10:58:51;2.67;;;2.40;;
6344;SDS011;3205;42.666;23.264;2023-12-22T11:01:18;2.77;;;2.10;;
6344;SDS011;3205;42.666;23.264;2023-12-22T11:03:48;2.17;;;1.80;;
6344;SDS011;3205;42.666;23.264;2023-12-22T11:06:17;4.33;;;2.07;;
6344;SDS011;3205;42.666;23.264;2023-12-22T11:08:45;1.90;;;1.60;;
6344;SDS011;3205;42.666;23.264;2023-12-22T11:11:16;2.10;;;1.90;;
6344;SDS011;3205;42.666;23.264;2023-12-22T11:13:55;5.17;;;2.10;;
6344;SDS011;3205;42.666;23.264;2023-12-22T11:16:22;3.07;;;2.20;;
6344;SDS011;3205;42.666;23.264;2023-12-22T11:18:50;1.80;;;1.70;;
6344;SDS011;3205;42.666;23.264;2023-12-22T11:21:20;2.03;;;1.90;;
6344;SDS011;3205;42.666;23.264;2023-12-22T11:23:47;5.00;;;2.07;;
6344;SDS011;3205;42.666;23.264;2023-12-22T11:26:15;1.87;;;1.77;;
6344;SDS011;3205;42.666;23.264;2023-12-22T11:28:42;3.47;;;2.70;;
6344;SDS011;3205;42.666;23.264;2023-12-22T11:31:11;2.87;;;2.30;;
6344;SDS011;3205;42.666;23.264;2023-12-22T11:33:39;3.27;;;2.10;;
6344;SDS011;3205;42.666;23.264;2023-12-22T11:36:09;2.17;;;1.97;;
6344;SDS011;3205;42.666;23.264;2023-12-22T11:38:37;3.00;;;1.83;;
6344;SDS011;3205;42.666;23.264;2023-12-22T11:41:05;2.70;;;2.03;;
6344;SDS011;3205;42.666;23.264;2023-12-22T11:43:36;1.63;;;1.53;;
6344;SDS011;3205;42.666;23.264;2023-12-22T11:46:04;2.20;;;1.97;;
6344;SDS011;3205;42.666;23.264;2023-12-22T11:48:30;1.80;;;1.57;;
6344;SDS011;3205;42.666;23.264;2023-12-22T11:50:56;2.40;;;2.20;;
6344;SDS011;3205;42.666;23.264;2023-12-22T11:53:23;4.30;;;2.17;;
6344;SDS011;3205;42.666;23.264;2023-12-22T11:55:57;1.83;;;1.47;;
6344;SDS011;3205;42.666;23.264;2023-12-22T11:58:37;4.07;;;2.00;;
6344;SDS011;3205;42.666;23.264;2023-12-22T12:01:08;2.43;;;2.10;;
6344;SDS011;3205;42.666;23.264;2023-12-22T12:03:38;4.50;;;2.50;;
6344;SDS011;3205;42.666;23.264;2023-12-22T12:06:10;4.33;;;3.30;;
6344;SDS011;3205;42.666;23.264;2023-12-22T12:08:39;9.83;;;4.70;;
6344;SDS011;3205;42.666;23.264;2023-12-22T12:11:07;7.10;;;4.27;;
6344;SDS011;3205;42.666;23.264;2023-12-22T12:13:33;7.93;;;4.90;;
6344;SDS011;3205;42.666;23.264;2023-12-22T12:16:00;3.87;;;2.67;;
6344;SDS011;3205;42.666;23.264;2023-12-22T12:18:29;2.17;;;1.97;;
6344;SDS011;3205;42.666;23.264;2023-12-22T12:20:56;3.83;;;2.30;;
6344;SDS011;3205;42.666;23.264;2023-12-22T12:23:23;4.90;;;3.50;;
6344;SDS011;3205;42.666;23.264;2023-12-22T12:25:49;6.40;;;3.40;;
6344;SDS011;3205;42.666;23.264;2023-12-22T12:28:16;4.77;;;2.33;;
6344;SDS011;3205;42.666;23.264;2023-12-22T12:30:43;3.27;;;2.97;;
6344;SDS011;3205;42.666;23.264;2023-12-22T12:33:11;4.97;;;3.00;;
6344;SDS011;3205;42.666;23.264;2023-12-22T12:35:39;7.17;;;3.10;;
6344;SDS011;3205;42.666;23.264;2023-12-22T12:38:06;3.73;;;2.57;;
6344;SDS011;3205;42.666;23.264;2023-12-22T12:40:32;3.10;;;2.33;;
6344;SDS011;3205;42.666;23.264;2023-12-22T12:43:00;3.73;;;2.30;;
6344;SDS011;3205;42.666;23.264;2023-12-22T12:45:28;2.93;;;2.70;;
6344;SDS011;3205;42.666;23.264;2023-12-22T12:47:55;3.57;;;2.87;;
6344;SDS011;3205;42.666;23.264;2023-12-22T12:50:23;2.43;;;2.20;;
6344;SDS011;3205;42.666;23.264;2023-12-22T12:52:50;3.17;;;2.23;;
6344;SDS011;3205;42.666;23.264;2023-12-22T12:55:17;2.43;;;1.87;;
6344;SDS011;3205;42.666;23.264;2023-12-22T12:57:43;1.50;;;1.40;;
6344;SDS011;3205;42.666;23.264;2023-12-22T13:00:10;2.20;;;1.57;;
6344;SDS011;3205;42.666;23.264;2023-12-22T13:02:37;2.07;;;1.80;;
6344;SDS011;3205;42.666;23.264;2023-12-22T13:05:04;6.67;;;1.70;;
6344;SDS011;3205;42.666;23.264;2023-12-22T13:07:32;2.93;;;2.47;;
6344;SDS011;3205;42.666;23.264;2023-12-22T13:09:58;4.47;;;2.60;;
6344;SDS011;3205;42.666;23.264;2023-12-22T13:12:26;6.93;;;3.77;;
6344;SDS011;3205;42.666;23.264;2023-12-22T13:14:52;4.03;;;2.30;;
6344;SDS011;3205;42.666;23.264;2023-12-22T13:17:18;3.20;;;2.10;;
6344;SDS011;3205;42.666;23.264;2023-12-22T13:19:45;4.63;;;2.97;;
6344;SDS011;3205;42.666;23.264;2023-12-22T13:22:12;7.00;;;3.23;;
6344;SDS011;3205;42.666;23.264;2023-12-22T13:24:40;3.00;;;2.70;;
6344;SDS011;3205;42.666;23.264;2023-12-22T13:27:06;3.97;;;2.40;;
6344;SDS011;3205;42.666;23.264;2023-12-22T13:29:42;3.93;;;2.63;;
6344;SDS011;3205;42.666;23.264;2023-12-22T13:32:14;3.37;;;2.80;;
6344;SDS011;3205;42.666;23.264;2023-12-22T13:34:46;3.57;;;2.10;;
6344;SDS011;3205;42.666;23.264;2023-12-22T13:37:13;3.17;;;2.67;;
6344;SDS011;3205;42.666;23.264;2023-12-22T13:39:40;3.27;;;2.67;;
6344;SDS011;3205;42.666;23.264;2023-12-22T13:42:13;6.93;;;3.10;;
6344;SDS011;3205;42.666;23.264;2023-12-22T13:44:42;3.67;;;2.60;;
6344;SDS011;3205;42.666;23.264;2023-12-22T13:47:09;3.40;;;2.63;;
6344;SDS011;3205;42.666;23.264;2023-12-22T13:49:35;3.13;;;2.40;;
6344;SDS011;3205;42.666;23.264;2023-12-22T13:52:01;4.00;;;2.80;;
6344;SDS011;3205;42.666;23.264;2023-12-22T13:54:31;2.87;;;2.40;;
6344;SDS011;3205;42.666;23.264;2023-12-22T13:56:59;2.93;;;2.60;;
6344;SDS011;3205;42.666;23.264;2023-12-22T13:59:30;2.40;;;2.20;;
6344;SDS011;3205;42.666;23.264;2023-12-22T14:01:57;2.10;;;1.70;;
6344;SDS011;3205;42.666;23.264;2023-12-22T14:04:23;2.63;;;2.07;;
6344;SDS011;3205;42.666;23.264;2023-12-22T14:06:50;3.50;;;2.73;;
6344;SDS011;3205;42.666;23.264;2023-12-22T14:09:16;5.60;;;3.03;;
6344;SDS011;3205;42.666;23.264;2023-12-22T14:11:47;4.20;;;2.70;;
6344;SDS011;3205;42.666;23.264;2023-12-22T14:14:14;3.57;;;2.87;;
6344;SDS011;3205;42.666;23.264;2023-12-22T14:16:42;5.77;;;3.23;;
6344;SDS011;3205;42.666;23.264;2023-12-22T14:19:08;6.40;;;3.03;;
6344;SDS011;3205;42.666;23.264;2023-12-22T14:21:34;4.20;;;2.60;;
6344;SDS011;3205;42.666;23.264;2023-12-22T14:24:00;8.37;;;3.27;;
6344;SDS011;3205;42.666;23.264;2023-12-22T14:26:28;5.20;;;2.80;;
6344;SDS011;3205;42.666;23.264;2023-12-22T14:28:55;6.40;;;3.20;;
6344;SDS011;3205;42.666;23.264;2023-12-22T14:31:22;5.73;;;2.43;;
6344;SDS011;3205;42.666;23.264;2023-12-22T14:33:48;6.67;;;3.20;;
6344;SDS011;3205;42.666;23.264;2023-12-22T14:36:15;4.03;;;3.03;;
6344;SDS011;3205;42.666;23.264;2023-12-22T14:38:42;5.47;;;3.23;;
6344;SDS011;3205;42.666;23.264;2023-12-22T14:41:08;4.00;;;3.10;;
6344;SDS011;3205;42.666;23.264;2023-12-22T14:43:35;2.60;;;2.27;;